Time;durP1;ratioP1;P1;durP2;ratioP2;P2;SDS_P1;SDS_P2;PMS_P1;PMS_P2;Temp;Humidity;BMP_temperature;BMP_pressure;BME280_temperature;BME280_humidity;BME280_pressure;Samples;Min_cycle;Max_cycle;Signal;HPM_P1;HPM_P2
2022/09/08 07:02:42;;;;;;;1.70;0.75;;;17.80;99.90;;;;;;6142203;23;20410;-75
2022/09/08 07:05:26;;;;;;;1.50;0.45;;;17.80;99.90;;;;;;6225219;23;20012;-73
2022/09/08 07:08:17;;;;;;;2.05;0.50;;;17.90;99.90;;;;;;6173777;23;20059;-71
2022/09/08 07:10:54;;;;;;;2.20;0.50;;;17.90;99.90;;;;;;6198207;23;20074;-73
2022/09/08 07:13:38;;;;;;;2.03;0.50;;;18.00;99.90;;;;;;6224297;23;20052;-75
2022/09/08 07:16:35;;;;;;;2.42;0.47;;;18.00;99.90;;;;;;6198375;23;20000;-74
2022/09/08 07:19:36;;;;;;;1.88;0.50;;;18.10;99.90;;;;;;6224192;23;20008;-77
2022/09/08 07:22:26;;;;;;;2.72;0.50;;;18.10;99.90;;;;;;6224154;23;20011;-74
2022/09/08 07:25:08;;;;;;;2.05;0.40;;;18.20;99.90;;;;;;6224646;23;20012;-76
2022/09/08 07:27:45;;;;;;;2.13;0.50;;;18.40;99.90;;;;;;6197480;23;20005;-74
2022/09/08 07:30:18;;;;;;;3.25;0.40;;;18.40;99.90;;;;;;6224057;23;20001;-77
2022/09/08 07:32:56;;;;;;;1.58;0.30;;;18.60;99.90;;;;;;6224701;23;20012;-78
2022/09/08 07:36:10;;;;;;;1.13;0.30;;;18.80;99.90;;;;;;6198410;23;20060;-77
2022/09/08 07:38:47;;;;;;;1.80;0.50;;;19.00;99.90;;;;;;6220888;23;20035;-76
2022/09/08 07:41:28;;;;;;;0.50;0.20;;;19.00;99.90;;;;;;6176520;23;20011;-74
2022/09/08 07:43:59;;;;;;;1.48;0.32;;;19.00;99.90;;;;;;6226278;23;20015;-76
2022/09/08 07:47:08;;;;;;;1.50;0.43;;;19.00;99.90;;;;;;6199188;23;20012;-75
2022/09/08 07:49:59;;;;;;;1.35;0.43;;;19.00;99.90;;;;;;6175795;23;20012;-76
2022/09/08 07:52:40;;;;;;;1.30;0.40;;;19.20;99.90;;;;;;6224734;23;20012;-74
2022/09/08 07:55:23;;;;;;;1.75;0.52;;;19.30;99.90;;;;;;6226551;23;20284;-76
2022/09/08 07:58:02;;;;;;;2.20;0.40;;;19.60;99.90;;;;;;6225459;23;20249;-75
2022/09/08 08:00:43;;;;;;;1.60;0.30;;;19.90;99.90;;;;;;6224894;23;20206;-72
2022/09/08 08:03:31;;;;;;;1.77;0.40;;;19.90;99.90;;;;;;6225383;23;20058;-75
2022/09/08 08:05:58;;;;;;;1.38;0.30;;;19.90;99.90;;;;;;6199052;23;20151;-76
2022/09/08 08:08:37;;;;;;;2.10;0.50;;;19.80;99.90;;;;;;6225227;23;20068;-75
2022/09/08 08:11:46;;;;;;;5.70;1.30;;;19.60;99.90;;;;;;6198561;23;20005;-75
2022/09/08 08:14:42;;;;;;;2.42;0.45;;;19.70;99.90;;;;;;6193740;23;20004;-75
2022/09/08 08:17:14;;;;;;;2.65;0.30;;;19.90;99.90;;;;;;6225665;23;20339;-75
2022/09/08 08:19:39;;;;;;;0.85;0.32;;;19.80;99.90;;;;;;6224700;23;20004;-75
2022/09/08 08:22:17;;;;;;;1.20;0.32;;;19.60;99.90;;;;;;6198588;23;20050;-74
2022/09/08 08:24:54;;;;;;;1.27;0.50;;;19.70;99.90;;;;;;6224279;23;20189;-74
2022/09/08 08:27:38;;;;;;;1.02;0.30;;;19.80;99.90;;;;;;6235797;23;20008;-73
2022/09/08 08:30:25;;;;;;;2.13;0.40;;;19.80;99.90;;;;;;6238649;23;20001;-71
2022/09/08 08:33:08;;;;;;;5.13;0.60;;;19.90;99.90;;;;;;6238637;23;20005;-72
2022/09/08 08:35:47;;;;;;;3.05;0.30;;;20.00;99.90;;;;;;6238602;23;20056;-70
2022/09/08 08:38:28;;;;;;;1.30;0.32;;;20.10;99.90;;;;;;6213286;23;20020;-69
2022/09/08 08:40:59;;;;;;;1.05;0.30;;;20.10;99.90;;;;;;6234681;23;20061;-73
2022/09/08 08:43:27;;;;;;;1.45;0.30;;;20.30;99.90;;;;;;6223332;23;20282;-71
2022/09/08 08:46:05;;;;;;;;;;;20.30;99.90;;;;;;6225177;23;20004;-74
2022/09/08 08:49:11;;;;;;;2.38;0.35;;;20.30;99.90;;;;;;6223409;23;19908;-73
2022/09/08 08:51:58;;;;;;;2.85;0.40;;;20.10;99.90;;;;;;6223620;23;20015;-72
2022/09/08 08:54:56;;;;;;;1.02;0.30;;;20.30;99.90;;;;;;6223806;23;20308;-72
2022/09/08 08:57:32;;;;;;;1.13;0.32;;;20.70;99.90;;;;;;6223148;23;20054;-72
2022/09/08 09:00:14;;;;;;;1.17;0.30;;;21.20;99.00;;;;;;6224074;23;20099;-72
2022/09/08 09:03:18;;;;;;;1.90;0.50;;;21.40;97.80;;;;;;6223659;23;20064;-72
2022/09/08 09:06:06;;;;;;;2.35;0.32;;;21.40;96.50;;;;;;6223657;23;20282;-71
2022/09/08 09:09:02;;;;;;;1.15;0.28;;;21.60;95.70;;;;;;6223167;23;20008;-70
2022/09/08 09:11:46;;;;;;;1.52;0.43;;;21.50;95.50;;;;;;6222386;23;20076;-73
2022/09/08 09:14:44;;;;;;;2.30;0.50;;;21.30;95.40;;;;;;6223236;23;20015;-70
2022/09/08 09:17:37;;;;;;;0.98;0.20;;;21.20;95.60;;;;;;6223677;23;20135;-71
2022/09/08 09:20:11;;;;;;;2.42;0.40;;;21.50;94.60;;;;;;6223097;23;20261;-71
2022/09/08 09:22:40;;;;;;;2.63;0.60;;;21.60;94.70;;;;;;6222841;23;20022;-71
2022/09/08 09:25:34;;;;;;;1.10;0.30;;;21.50;94.60;;;;;;6223145;23;20008;-72
2022/09/08 09:28:23;;;;;;;1.95;0.47;;;21.50;94.30;;;;;;6223336;23;20190;-72
2022/09/08 09:31:08;;;;;;;1.90;0.25;;;21.30;93.80;;;;;;6223467;23;20020;-73
2022/09/08 09:34:08;;;;;;;4.70;0.60;;;21.00;94.10;;;;;;6222319;23;20237;-72
2022/09/08 09:37:11;;;;;;;2.30;0.40;;;20.90;94.30;;;;;;6223047;23;20040;-73
2022/09/08 09:40:08;;;;;;;2.72;0.30;;;20.90;94.50;;;;;;6222587;23;20021;-71
2022/09/08 09:43:13;;;;;;;2.97;0.60;;;20.80;94.30;;;;;;6223215;23;20067;-71
2022/09/08 09:46:03;;;;;;;3.17;1.33;;;20.90;94.30;;;;;;6223192;23;20165;-73
2022/09/08 09:48:57;;;;;;;1.98;0.35;;;21.10;93.60;;;;;;6222866;23;20044;-71
2022/09/08 09:51:37;;;;;;;1.83;0.50;;;21.40;93.00;;;;;;6222235;23;20004;-71
2022/09/08 09:54:09;;;;;;;2.70;0.55;;;21.60;92.70;;;;;;6222738;23;20012;-72
2022/09/08 09:56:53;;;;;;;1.95;0.40;;;22.00;92.00;;;;;;6222713;23;20000;-72
2022/09/08 09:59:22;;;;;;;4.05;0.55;;;22.20;92.10;;;;;;6222440;23;20027;-71
2022/09/08 10:01:57;;;;;;;1.25;0.47;;;22.50;91.20;;;;;;6223213;23;20013;-72
2022/09/08 10:05:04;;;;;;;2.92;0.70;;;22.60;90.20;;;;;;6222571;23;20019;-71
2022/09/08 10:07:49;;;;;;;1.10;0.20;;;22.40;91.50;;;;;;6165017;23;20001;-73
2022/09/08 10:10:45;;;;;;;1.70;0.30;;;22.60;92.30;;;;;;6223171;23;20004;-72
2022/09/08 10:13:17;;;;;;;2.58;0.38;;;23.20;92.00;;;;;;6222675;23;20168;-71
2022/09/08 10:15:48;;;;;;;2.05;0.40;;;23.70;90.70;;;;;;6223039;23;20011;-71
2022/09/08 10:18:39;;;;;;;2.38;0.65;;;24.00;90.30;;;;;;6222827;23;20315;-71
2022/09/08 10:21:16;;;;;;;1.92;0.60;;;24.20;90.00;;;;;;6196025;23;20012;-71
2022/09/08 10:23:42;;;;;;;1.77;0.50;;;24.00;87.60;;;;;;6222916;23;20056;-72
2022/09/08 10:26:48;;;;;;;1.20;0.32;;;23.80;88.50;;;;;;6222937;23;20008;-71
2022/09/08 10:29:14;;;;;;;1.23;0.10;;;23.30;87.80;;;;;;6222069;23;20280;-71
2022/09/08 10:32:17;;;;;;;1.52;0.30;;;23.20;88.00;;;;;;6223001;23;19989;-71
2022/09/08 10:34:45;;;;;;;1.70;0.30;;;23.00;90.40;;;;;;6222363;23;20008;-70
2022/09/08 10:37:49;;;;;;;1.05;0.25;;;23.00;90.30;;;;;;6222601;23;20194;-69
2022/09/08 10:40:42;;;;;;;1.00;0.30;;;22.90;90.10;;;;;;6130269;23;20134;-72
2022/09/08 10:43:38;;;;;;;2.25;0.47;;;23.10;89.80;;;;;;6130812;23;20021;-69
2022/09/08 10:46:25;;;;;;;1.55;0.43;;;23.20;85.80;;;;;;6131041;23;20349;-70
2022/09/08 10:49:05;;;;;;;0.65;0.20;;;23.20;85.80;;;;;;6132384;23;20006;-74
2022/09/08 10:51:48;;;;;;;2.05;0.30;;;23.10;86.30;;;;;;6107940;23;20056;-78
2022/09/08 10:58:09;;;;;;;2.53;0.40;;;23.00;86.80;;;;;;6126103;23;20014;-74
2022/09/08 11:01:02;;;;;;;2.75;0.30;;;23.00;86.50;;;;;;6089078;23;20056;-72
2022/09/08 11:03:27;;;;;;;2.63;0.60;;;22.90;86.50;;;;;;6114446;23;20014;-75
2022/09/08 11:06:07;;;;;;;2.10;0.40;;;22.80;86.60;;;;;;6078998;23;20087;-74
2022/09/08 11:09:07;;;;;;;1.88;0.40;;;22.60;87.00;;;;;;6102825;23;20323;-72
2022/09/08 11:11:58;;;;;;;4.10;0.60;;;22.60;87.50;;;;;;6152451;23;20005;-73
2022/09/08 11:14:43;;;;;;;3.75;1.08;;;22.40;87.90;;;;;;6195179;23;20130;-73
2022/09/08 11:17:26;;;;;;;1.55;0.60;;;22.50;87.70;;;;;;6169734;23;20009;-75
2022/09/08 11:20:17;;;;;;;6.20;1.45;;;22.60;87.10;;;;;;6169149;23;20014;-73
2022/09/08 11:23:22;;;;;;;1.88;0.40;;;22.80;89.30;;;;;;6195873;23;20036;-74
2022/09/08 11:26:04;;;;;;;3.42;0.40;;;22.80;90.40;;;;;;6076651;23;20018;-74
2022/09/08 11:28:51;;;;;;;2.17;0.45;;;22.80;90.50;;;;;;6076234;23;20014;-73
2022/09/08 11:31:48;;;;;;;1.80;0.47;;;23.00;90.50;;;;;;6074071;23;20069;-73
2022/09/08 11:34:38;;;;;;;1.23;0.38;;;23.30;90.20;;;;;;6077996;23;20019;-72
2022/09/08 11:37:22;;;;;;;1.42;0.50;;;23.80;89.20;;;;;;6075534;23;20058;-72
2022/09/08 11:40:42;;;;;;;2.63;0.40;;;24.10;87.60;;;;;;6075923;23;20308;-73
2022/09/08 11:44:16;;;;;;;4.30;1.70;;;24.20;87.50;;;;;;6076051;23;20029;-72
2022/09/08 11:47:40;;;;;;;3.03;0.60;;;24.50;86.10;;;;;;6065655;23;20014;-73
2022/09/08 11:50:44;;;;;;;1.52;0.55;;;24.40;86.20;;;;;;6074678;23;20003;-74
2022/09/08 11:54:07;;;;;;;2.08;0.52;;;24.00;86.00;;;;;;6074505;23;20038;-73
2022/09/08 11:56:45;;;;;;;1.65;0.30;;;23.70;87.40;;;;;;6074885;23;20010;-74
2022/09/08 11:59:43;;;;;;;3.08;0.40;;;23.50;84.70;;;;;;6074932;23;20227;-72
2022/09/08 12:02:38;;;;;;;2.85;0.30;;;23.30;84.30;;;;;;6104220;23;20016;-72
2022/09/08 12:05:21;;;;;;;2.00;0.50;;;23.40;85.60;;;;;;6161999;23;20032;-73
2022/09/08 12:08:03;;;;;;;1.40;0.30;;;23.70;85.00;;;;;;6224610;23;20059;-73
2022/09/08 12:10:56;;;;;;;2.13;0.75;;;23.90;81.70;;;;;;6223670;23;20016;-73
2022/09/08 12:13:52;;;;;;;2.08;0.63;;;23.70;82.60;;;;;;6223929;23;20064;-73
2022/09/08 12:16:57;;;;;;;2.27;0.53;;;23.30;82.90;;;;;;6196957;23;20013;-73
2022/09/08 12:19:39;;;;;;;2.05;0.50;;;23.40;84.20;;;;;;6224387;23;20009;-72
2022/09/08 12:22:27;;;;;;;2.20;0.40;;;23.20;83.50;;;;;;6224040;23;20015;-72
2022/09/08 12:25:26;;;;;;;2.47;0.60;;;23.20;85.30;;;;;;6198522;23;20008;-73
2022/09/08 12:28:48;;;;;;;1.98;0.30;;;23.50;85.10;;;;;;6197135;23;20008;-73
2022/09/08 12:31:58;;;;;;;3.38;0.60;;;23.50;85.90;;;;;;6197829;23;20067;-73
2022/09/08 12:34:35;;;;;;;1.48;0.40;;;23.50;83.90;;;;;;6197926;23;20013;-73
2022/09/08 12:37:44;;;;;;;3.33;0.50;;;23.70;82.20;;;;;;6195922;23;20367;-73
2022/09/08 12:40:47;;;;;;;2.70;0.50;;;23.90;80.20;;;;;;6224537;23;20015;-75
2022/09/08 12:43:19;;;;;;;2.53;0.40;;;24.00;81.30;;;;;;6224488;23;20024;-75
2022/09/08 12:46:06;;;;;;;4.45;0.95;;;23.90;82.10;;;;;;6224734;23;20301;-73
2022/09/08 12:48:59;;;;;;;2.47;0.38;;;23.80;82.50;;;;;;6221830;23;20005;-74
2022/09/08 12:51:37;;;;;;;1.60;0.50;;;24.70;80.90;;;;;;6196448;23;20329;-74
2022/09/08 12:57:49;;;;;;;1.50;0.22;;;29.30;71.00;;;;;;6222971;23;20007;-75
2022/09/08 13:00:29;;;;;;;2.03;0.40;;;31.30;67.60;;;;;;6196560;23;20001;-76
2022/09/08 13:03:31;;;;;;;1.23;0.40;;;32.80;62.70;;;;;;6197325;23;20042;-75
2022/09/08 13:06:00;;;;;;;1.88;0.40;;;33.20;59.40;;;;;;6194536;23;20001;-74
2022/09/08 13:08:26;;;;;;;1.75;0.45;;;33.70;58.50;;;;;;6223518;23;20011;-76
2022/09/08 13:11:15;;;;;;;3.45;0.30;;;31.90;59.40;;;;;;6173013;23;20013;-76
2022/09/08 13:13:45;;;;;;;2.80;0.20;;;30.50;61.00;;;;;;6197893;23;20016;-73
2022/09/08 13:16:23;;;;;;;1.25;0.30;;;29.50;63.80;;;;;;6224568;23;20334;-79
2022/09/08 13:19:16;;;;;;;3.50;0.80;;;28.10;64.50;;;;;;6223769;23;20008;-73
2022/09/08 13:21:57;;;;;;;1.67;0.30;;;26.60;67.10;;;;;;6196020;23;20109;-74
2022/09/08 13:24:30;;;;;;;2.33;0.50;;;26.70;67.10;;;;;;6222811;23;20009;-74
2022/09/08 13:27:05;;;;;;;1.52;0.30;;;26.50;67.70;;;;;;6196599;23;20019;-74
2022/09/08 13:29:36;;;;;;;3.53;0.40;;;26.40;67.40;;;;;;6221602;23;20004;-73
2022/09/08 13:32:26;;;;;;;1.73;0.47;;;26.30;67.30;;;;;;6223270;23;20011;-73
2022/09/08 13:34:52;;;;;;;1.67;0.40;;;26.40;67.10;;;;;;6222522;23;20001;-73
2022/09/08 13:37:39;;;;;;;1.33;0.30;;;26.30;67.40;;;;;;6222784;23;20205;-75
2022/09/08 13:40:39;;;;;;;1.67;0.40;;;26.30;68.70;;;;;;6222754;23;20009;-74
2022/09/08 13:43:31;;;;;;;1.40;0.40;;;26.20;67.50;;;;;;6223380;23;20076;-74
2022/09/08 13:46:17;;;;;;;3.00;0.40;;;26.40;68.10;;;;;;6219739;23;20187;-74
2022/09/08 13:49:09;;;;;;;2.22;0.30;;;27.80;67.30;;;;;;6197508;23;20234;-73
2022/09/08 13:52:05;;;;;;;1.60;0.40;;;30.70;61.90;;;;;;6223681;23;20294;-74
2022/09/08 13:55:04;;;;;;;1.80;0.22;;;32.00;58.60;;;;;;6195996;23;20043;-73
2022/09/08 13:58:11;;;;;;;0.70;0.20;;;34.50;55.90;;;;;;6172326;23;20008;-74
2022/09/08 14:01:26;;;;;;;1.13;0.30;;;33.40;53.90;;;;;;6222572;23;20004;-74
2022/09/08 14:04:20;;;;;;;1.67;0.40;;;31.50;55.70;;;;;;6214196;23;20020;-73
2022/09/08 14:06:52;;;;;;;1.23;0.30;;;30.60;57.00;;;;;;6222703;23;20009;-73
2022/09/08 14:09:38;;;;;;;3.05;0.47;;;32.80;55.50;;;;;;6222116;23;20106;-74
2022/09/08 14:12:22;;;;;;;1.80;0.30;;;34.20;53.50;;;;;;6222285;23;20004;-74
2022/09/08 14:15:06;;;;;;;1.33;0.30;;;35.50;51.00;;;;;;6193971;23;20067;-74
2022/09/08 14:17:55;;;;;;;1.67;0.38;;;36.30;50.40;;;;;;6222137;23;20012;-75
2022/09/08 14:20:57;;;;;;;1.88;0.30;;;34.90;51.30;;;;;;6222262;23;20005;-75
2022/09/08 14:23:49;;;;;;;1.08;0.30;;;34.80;51.50;;;;;;6222105;23;20015;-74
2022/09/08 14:26:24;;;;;;;2.35;0.35;;;36.20;49.50;;;;;;6195535;23;20023;-75
2022/09/08 14:28:52;;;;;;;1.60;0.40;;;37.20;48.70;;;;;;6222767;23;20001;-73
2022/09/08 14:31:48;;;;;;;1.30;0.30;;;36.10;49.30;;;;;;6195464;23;20011;-74
2022/09/08 14:34:53;;;;;;;1.60;0.30;;;33.90;50.50;;;;;;6222198;23;20000;-75
2022/09/08 14:37:27;;;;;;;1.85;0.38;;;30.60;54.30;;;;;;6195599;23;20008;-74
2022/09/08 14:40:23;;;;;;;2.65;0.40;;;28.80;57.70;;;;;;6196403;23;20198;-74
2022/09/08 14:43:06;;;;;;;1.90;0.40;;;27.40;59.80;;;;;;6221891;23;20008;-75
2022/09/08 14:46:07;;;;;;;1.67;0.45;;;26.70;62.30;;;;;;6221832;23;20193;-74
2022/09/08 14:48:53;;;;;;;2.20;0.43;;;26.60;62.40;;;;;;6221707;23;20004;-75
2022/09/08 14:51:43;;;;;;;3.17;0.73;;;25.80;64.30;;;;;;6195898;23;20015;-74
2022/09/08 14:54:26;;;;;;;2.63;0.47;;;25.90;64.70;;;;;;6195586;23;20210;-74
2022/09/08 14:57:19;;;;;;;1.77;0.32;;;26.50;64.10;;;;;;6196100;23;20028;-74
2022/09/08 15:00:19;;;;;;;2.97;0.30;;;28.30;63.00;;;;;;6222155;23;20008;-75
2022/09/08 15:02:49;;;;;;;2.80;0.35;;;30.70;58.70;;;;;;6123444;23;20065;-73
2022/09/08 15:05:45;;;;;;;2.05;0.40;;;30.70;56.70;;;;;;6188762;23;20036;-74
2022/09/08 15:08:21;;;;;;;1.92;0.35;;;31.80;56.70;;;;;;6142338;23;20277;-73
2022/09/08 15:11:32;;;;;;;1.45;0.28;;;33.30;54.20;;;;;;6192089;23;20024;-74
2022/09/08 15:14:42;;;;;;;2.55;0.50;;;34.90;52.10;;;;;;6166292;23;20004;-73
2022/09/08 15:17:38;;;;;;;2.20;0.40;;;36.00;50.40;;;;;;6135537;23;20399;-74
2022/09/08 15:20:27;;;;;;;2.40;0.40;;;36.40;49.40;;;;;;6191891;23;20299;-75
2022/09/08 15:23:11;;;;;;;1.55;0.32;;;36.40;49.40;;;;;;6192001;23;20028;-74
2022/09/08 15:26:09;;;;;;;2.08;0.35;;;32.60;51.70;;;;;;6165020;23;20033;-74
2022/09/08 15:28:36;;;;;;;;;;;29.50;56.20;;;;;;6192461;23;20056;-74
2022/09/08 15:31:36;;;;;;;2.13;0.43;;;27.90;58.80;;;;;;6191980;23;19906;-74
2022/09/08 15:34:15;;;;;;;2.45;0.50;;;27.10;60.40;;;;;;6192597;23;20036;-74
2022/09/08 15:36:59;;;;;;;2.33;0.50;;;27.00;61.20;;;;;;6192627;23;20063;-75
2022/09/08 15:40:15;;;;;;;2.13;0.43;;;29.10;57.90;;;;;;6191923;23;20001;-75
2022/09/08 15:43:09;;;;;;;1.77;0.40;;;29.70;57.40;;;;;;6165405;23;20005;-74
2022/09/08 15:46:13;;;;;;;1.77;0.40;;;31.30;55.50;;;;;;6191486;23;20068;-73
2022/09/08 15:48:49;;;;;;;;;;;32.80;53.90;;;;;;6167456;23;20172;-74
2022/09/08 15:51:38;;;;;;;3.28;0.50;;;34.60;52.80;;;;;;6165726;23;19920;-74
2022/09/08 15:54:19;;;;;;;3.60;0.30;;;36.60;50.20;;;;;;6191744;23;19997;-74
2022/09/08 15:57:16;;;;;;;1.90;0.57;;;37.40;48.60;;;;;;6192502;23;20020;-73
2022/09/08 16:00:05;;;;;;;1.77;0.40;;;36.40;48.20;;;;;;6193888;23;20215;-75
2022/09/08 16:03:01;;;;;;;2.33;0.43;;;36.00;48.70;;;;;;6170922;23;20036;-74
2022/09/08 16:05:41;;;;;;;1.30;0.30;;;35.90;49.00;;;;;;6197280;23;20005;-74
2022/09/08 16:08:34;;;;;;;2.50;0.50;;;36.90;48.20;;;;;;6224026;23;20147;-74
2022/09/08 16:11:35;;;;;;;1.80;0.50;;;37.30;48.60;;;;;;6224000;23;20000;-75
2022/09/08 16:14:22;;;;;;;2.55;0.50;;;38.00;47.60;;;;;;6197676;23;20246;-74
2022/09/08 16:17:11;;;;;;;3.35;0.60;;;37.50;47.40;;;;;;6197648;23;20004;-75
2022/09/08 16:19:39;;;;;;;2.10;0.45;;;35.10;49.00;;;;;;6223353;23;20015;-75
2022/09/08 16:22:13;;;;;;;2.17;0.40;;;32.30;51.50;;;;;;6224037;23;20020;-75
2022/09/08 16:24:49;;;;;;;3.15;0.50;;;29.60;54.40;;;;;;6223622;23;20039;-75
2022/09/08 16:27:21;;;;;;;4.35;0.50;;;28.50;56.40;;;;;;6222778;23;20062;-76
2022/09/08 16:30:00;;;;;;;2.42;0.40;;;27.30;58.00;;;;;;6223627;23;20000;-76
2022/09/08 16:32:46;;;;;;;2.78;0.50;;;27.20;58.90;;;;;;6223896;23;20012;-76
2022/09/08 16:35:15;;;;;;;2.25;0.60;;;27.50;58.80;;;;;;6223743;23;20005;-76
2022/09/08 16:37:42;;;;;;;1.55;0.35;;;27.10;59.10;;;;;;6223635;23;20005;-75
2022/09/08 16:40:13;;;;;;;2.40;0.65;;;26.40;60.40;;;;;;6223821;23;20013;-74
2022/09/08 16:43:03;;;;;;;2.85;0.50;;;25.90;61.60;;;;;;6224181;23;20046;-77
2022/09/08 16:46:21;;;;;;;2.75;0.50;;;25.50;63.00;;;;;;6198933;23;20008;-75
2022/09/08 16:49:17;;;;;;;2.65;0.60;;;25.10;63.90;;;;;;6199789;23;20201;-78
2022/09/08 16:52:19;;;;;;;4.28;1.35;;;24.50;65.40;;;;;;6202724;23;20091;-75
2022/09/08 16:55:14;;;;;;;3.65;1.05;;;24.20;66.90;;;;;;6199383;23;20007;-76
2022/09/08 16:58:07;;;;;;;2.13;0.60;;;24.10;67.20;;;;;;6224918;23;20119;-74
2022/09/08 17:00:52;;;;;;;3.42;1.02;;;24.00;67.50;;;;;;6224252;23;20092;-73
2022/09/08 17:03:27;;;;;;;1.98;0.70;;;24.00;67.90;;;;;;6223499;23;20012;-75
2022/09/08 17:06:00;;;;;;;2.75;0.40;;;24.00;68.40;;;;;;6224541;23;20003;-74
2022/09/08 17:08:31;;;;;;;3.83;0.82;;;24.00;68.30;;;;;;6223861;23;20275;-74
2022/09/08 17:11:12;;;;;;;2.72;0.63;;;23.90;68.50;;;;;;6224690;23;20057;-74
2022/09/08 17:13:38;;;;;;;2.92;0.75;;;23.90;68.70;;;;;;6223734;23;20198;-73
2022/09/08 17:16:45;;;;;;;2.30;0.60;;;23.70;69.30;;;;;;6197857;23;20000;-74
2022/09/08 17:19:20;;;;;;;2.28;0.40;;;23.80;69.60;;;;;;6224710;23;20023;-74
2022/09/08 17:22:13;;;;;;;3.40;0.60;;;23.60;69.90;;;;;;6224594;23;20172;-74
2022/09/08 17:25:06;;;;;;;3.80;0.73;;;23.30;71.00;;;;;;6224848;23;20008;-72
2022/09/08 17:27:44;;;;;;;3.78;0.80;;;23.20;71.50;;;;;;6223921;23;20186;-73
2022/09/08 17:30:17;;;;;;;3.28;1.13;;;23.10;71.90;;;;;;6224397;23;20010;-73
2022/09/08 17:32:57;;;;;;;2.30;0.73;;;22.90;72.30;;;;;;6224654;23;20009;-74
2022/09/08 17:35:53;;;;;;;2.75;0.70;;;22.60;72.00;;;;;;6223210;23;20012;-72
2022/09/08 17:38:24;;;;;;;2.25;0.60;;;22.40;73.40;;;;;;6223182;23;20332;-73
2022/09/08 17:41:04;;;;;;;2.47;0.50;;;22.30;72.50;;;;;;6224106;23;20024;-75
2022/09/08 17:43:54;;;;;;;1.85;0.55;;;22.20;71.90;;;;;;6223126;23;20054;-75
2022/09/08 17:46:38;;;;;;;2.78;0.47;;;22.10;71.90;;;;;;6224110;23;20020;-75
2022/09/08 17:49:29;;;;;;;3.80;0.70;;;21.80;72.90;;;;;;6198091;23;20008;-75
2022/09/08 17:52:11;;;;;;;4.70;0.77;;;21.70;73.20;;;;;;6198101;23;20024;-74
2022/09/08 17:54:43;;;;;;;3.72;0.70;;;21.60;73.50;;;;;;6224622;23;20027;-74
2022/09/08 17:57:22;;;;;;;5.85;1.17;;;21.40;74.00;;;;;;6198058;23;20243;-74
2022/09/08 18:00:09;;;;;;;4.40;1.00;;;21.20;75.00;;;;;;6224510;23;20004;-73
2022/09/08 18:03:11;;;;;;;3.00;0.77;;;21.10;75.00;;;;;;6222960;23;20271;-73
2022/09/08 18:05:59;;;;;;;1.92;0.75;;;21.00;75.50;;;;;;6223942;23;20016;-78
2022/09/08 18:08:38;;;;;;;5.63;1.07;;;20.90;76.10;;;;;;6197227;23;20001;-74
2022/09/08 18:11:04;;;;;;;2.13;0.70;;;20.80;76.00;;;;;;6224344;23;20372;-73
2022/09/08 18:13:44;;;;;;;2.30;0.52;;;20.60;76.40;;;;;;6197412;23;20015;-74
2022/09/08 18:16:32;;;;;;;5.18;1.10;;;20.50;76.40;;;;;;6224341;23;20290;-72
2022/09/08 18:19:17;;;;;;;2.97;0.70;;;20.60;76.40;;;;;;6223722;23;20004;-74
2022/09/08 18:22:22;;;;;;;3.25;0.60;;;20.50;76.80;;;;;;6224603;23;20043;-73
2022/09/08 18:25:35;;;;;;;3.28;0.70;;;20.40;77.10;;;;;;6224682;23;20036;-74
2022/09/08 18:29:12;;;;;;;5.60;0.93;;;20.30;77.40;;;;;;6103258;23;20022;-73
2022/09/08 18:31:55;;;;;;;3.50;0.85;;;20.10;78.00;;;;;;6102268;23;20010;-72
2022/09/08 18:34:30;;;;;;;7.40;1.40;;;20.00;78.50;;;;;;6161084;23;20013;-73
2022/09/08 18:37:00;;;;;;;3.95;0.90;;;19.90;79.10;;;;;;6161750;23;20020;-71
2022/09/08 18:39:30;;;;;;;5.47;1.02;;;19.80;79.60;;;;;;6160965;23;20016;-74
2022/09/08 18:42:32;;;;;;;3.90;0.80;;;19.80;79.80;;;;;;6136918;23;20068;-73
2022/09/08 18:45:16;;;;;;;3.63;1.02;;;19.70;80.20;;;;;;6074050;23;20043;-74
2022/09/08 18:47:44;;;;;;;2.22;0.90;;;19.60;80.40;;;;;;6154370;23;20026;-74
2022/09/08 18:50:34;;;;;;;2.67;0.93;;;19.50;80.90;;;;;;6161326;23;20420;-75
2022/09/08 18:54:03;;;;;;;3.00;0.90;;;19.40;81.30;;;;;;6203565;23;20008;-73
2022/09/08 18:57:46;;;;;;;2.47;1.02;;;19.40;81.90;;;;;;6222166;23;20009;-73
2022/09/08 19:01:25;;;;;;;4.53;0.93;;;19.20;83.40;;;;;;6198805;23;20009;-73
2022/09/08 19:04:05;;;;;;;2.92;0.70;;;19.30;83.60;;;;;;6119237;23;20011;-73
2022/09/08 19:06:52;;;;;;;3.60;1.00;;;19.20;84.00;;;;;;6193729;23;19997;-73
2022/09/08 19:09:41;;;;;;;3.50;1.10;;;19.10;84.20;;;;;;6193500;23;20008;-75
2022/09/08 19:12:45;;;;;;;3.47;0.95;;;19.00;84.60;;;;;;6193324;23;20002;-75
2022/09/08 19:15:48;;;;;;;4.82;1.02;;;18.90;84.90;;;;;;6168316;23;20001;-75
2022/09/08 19:18:51;;;;;;;3.85;0.98;;;18.90;85.30;;;;;;6167361;23;20005;-73
2022/09/08 19:21:26;;;;;;;3.05;0.90;;;18.90;85.70;;;;;;6167390;23;20001;-73
2022/09/08 19:24:03;;;;;;;3.42;1.40;;;18.80;86.10;;;;;;6168034;23;20016;-75
2022/09/08 19:27:04;;;;;;;4.65;1.40;;;18.70;86.40;;;;;;6169090;23;20005;-74
2022/09/08 19:29:44;;;;;;;4.00;1.92;;;18.60;86.90;;;;;;6139940;23;20202;-73
2022/09/08 19:32:21;;;;;;;5.75;2.53;;;18.60;87.20;;;;;;6168377;23;20005;-74
2022/09/08 19:34:47;;;;;;;3.70;1.60;;;18.50;87.70;;;;;;6195890;23;20009;-73
2022/09/08 19:37:38;;;;;;;5.13;2.28;;;18.50;87.80;;;;;;6195661;23;20004;-74
2022/09/08 19:40:12;;;;;;;7.20;2.72;;;18.40;88.40;;;;;;6169802;23;20009;-76
2022/09/08 19:42:54;;;;;;;5.28;2.70;;;18.30;89.30;;;;;;6194634;23;20005;-75
2022/09/08 19:45:47;;;;;;;4.38;1.90;;;18.20;89.30;;;;;;6195089;23;20203;-74
2022/09/08 19:48:35;;;;;;;6.35;2.15;;;18.20;90.20;;;;;;6179566;23;20009;-72
2022/09/08 19:51:12;;;;;;;4.97;2.20;;;18.10;90.00;;;;;;6194296;23;20008;-74
2022/09/08 19:53:51;;;;;;;6.70;2.10;;;18.00;90.70;;;;;;6168602;23;20195;-74
2022/09/08 19:56:24;;;;;;;4.47;1.80;;;17.90;91.00;;;;;;6195483;23;20009;-75
2022/09/08 19:59:34;;;;;;;5.45;2.30;;;17.90;91.30;;;;;;6169277;23;20016;-75
2022/09/08 20:02:08;;;;;;;5.93;2.65;;;17.70;91.60;;;;;;6144983;23;20009;-75
2022/09/08 20:04:37;;;;;;;6.47;3.60;;;17.70;91.90;;;;;;6223387;23;20005;-76
2022/09/08 20:07:12;;;;;;;;;;;17.60;92.00;;;;;;6199582;23;19997;-76
2022/09/08 20:09:49;;;;;;;7.38;3.17;;;17.60;92.20;;;;;;6198462;23;19900;-74
2022/09/08 20:12:31;;;;;;;6.18;2.70;;;17.50;92.40;;;;;;6199425;23;20012;-72
2022/09/08 20:15:28;;;;;;;7.40;2.97;;;17.40;92.70;;;;;;6198074;23;20009;-74
2022/09/08 20:18:18;;;;;;;7.20;3.80;;;17.40;93.10;;;;;;6198820;23;20013;-75
2022/09/08 20:20:58;;;;;;;6.40;3.35;;;17.30;93.20;;;;;;6198513;23;20009;-74
2022/09/08 20:23:53;;;;;;;5.68;2.95;;;17.30;93.40;;;;;;6224788;23;20069;-73
2022/09/08 20:26:37;;;;;;;6.82;2.70;;;17.20;93.70;;;;;;6217377;23;20004;-73
2022/09/08 20:29:51;;;;;;;7.38;2.88;;;17.20;93.80;;;;;;6199050;23;19997;-73
2022/09/08 20:32:29;;;;;;;7.03;3.55;;;17.10;94.10;;;;;;6193457;23;20012;-74
2022/09/08 20:35:18;;;;;;;7.97;3.70;;;17.00;94.30;;;;;;6225150;23;20001;-73
2022/09/08 20:38:03;;;;;;;7.35;3.40;;;17.00;94.60;;;;;;6224056;23;20000;-74
2022/09/08 20:40:42;;;;;;;9.98;3.45;;;16.90;95.00;;;;;;6198159;23;20279;-74
2022/09/08 20:43:26;;;;;;;6.25;3.05;;;16.90;95.20;;;;;;6173695;23;20015;-74
2022/09/08 20:46:09;;;;;;;9.77;2.38;;;16.90;95.00;;;;;;6198769;23;20290;-74
2022/09/08 20:48:48;;;;;;;5.72;2.05;;;16.80;95.40;;;;;;6198456;23;20027;-74
2022/09/08 20:51:27;;;;;;;4.80;1.58;;;16.80;95.70;;;;;;6224388;23;20064;-74
2022/09/08 20:54:13;;;;;;;7.05;1.92;;;16.80;95.70;;;;;;6198916;23;20032;-76
2022/09/08 20:57:07;;;;;;;8.65;3.10;;;16.80;95.80;;;;;;6198429;23;20023;-75
2022/09/08 20:59:35;;;;;;;8.75;3.97;;;16.70;95.90;;;;;;6224171;23;20278;-73
2022/09/08 21:02:26;;;;;;;7.63;1.93;;;16.60;96.30;;;;;;6198056;23;20008;-74
2022/09/08 21:05:02;;;;;;;9.18;2.03;;;16.60;96.50;;;;;;6224899;23;20384;-74
2022/09/08 21:07:45;;;;;;;4.93;1.65;;;16.50;96.60;;;;;;6225409;23;20008;-73
2022/09/08 21:10:20;;;;;;;4.40;1.50;;;16.50;96.90;;;;;;6200636;23;20046;-73
2022/09/08 21:13:17;;;;;;;5.38;2.13;;;16.50;97.20;;;;;;6198443;23;20027;-74
2022/09/08 21:16:04;;;;;;;7.95;1.98;;;16.40;97.30;;;;;;6198233;23;20024;-73
2022/09/08 21:18:33;;;;;;;7.65;2.50;;;16.40;97.80;;;;;;6224418;23;20005;-74
2022/09/08 21:21:14;;;;;;;7.15;3.10;;;16.40;98.10;;;;;;6198670;23;20353;-75
2022/09/08 21:23:47;;;;;;;6.88;3.78;;;16.40;98.30;;;;;;6196881;23;20019;-73
2022/09/08 21:26:38;;;;;;;4.20;1.77;;;16.40;98.30;;;;;;6224670;23;20290;-75
2022/09/08 21:29:14;;;;;;;6.63;1.88;;;16.30;98.30;;;;;;6198256;23;20011;-73
2022/09/08 21:32:05;;;;;;;7.15;2.17;;;16.30;98.50;;;;;;6197606;23;20175;-72
2022/09/08 21:34:45;;;;;;;6.00;2.20;;;16.30;98.20;;;;;;6197246;23;20008;-75
2022/09/08 21:37:46;;;;;;;2.90;1.20;;;16.40;98.30;;;;;;6197824;23;20008;-73
2022/09/08 21:40:20;;;;;;;4.50;1.20;;;16.40;98.40;;;;;;6197269;23;20031;-74